Time;durP1;ratioP1;P1;durP2;ratioP2;P2;SDS_P1;SDS_P2;PMS_P1;PMS_P2;Temp;Humidity;BMP_temperature;BMP_pressure;BME280_temperature;BME280_humidity;BME280_pressure;Samples;Min_cycle;Max_cycle;Signal;HPM_P1;HPM_P2
2022/01/31 00:02:17;;;;;;;;;;;4.40;99.90;;;;;;5111574;27;20383;-80
2022/01/31 00:04:43;;;;;;;19.65;5.03;;;5.10;99.90;;;;;;5134043;27;19922;-81
2022/01/31 00:07:10;;;;;;;23.13;4.78;;;4.50;99.90;;;;;;5112220;27;20039;-81
2022/01/31 00:09:37;;;;;;;18.05;4.20;;;4.50;99.90;;;;;;5133121;27;20176;-81
2022/01/31 00:12:09;;;;;;;;;;;4.50;99.90;;;;;;5116379;27;20042;-81
2022/01/31 00:14:47;;;;;;;20.98;4.03;;;4.50;99.90;;;;;;5135279;27;19918;-81
2022/01/31 00:17:14;;;;;;;14.50;4.40;;;4.40;99.90;;;;;;5126085;27;20039;-80
2022/01/31 00:19:41;;;;;;;22.20;4.32;;;4.30;99.90;;;;;;5133055;27;20483;-81
2022/01/31 00:22:08;;;;;;;21.17;4.13;;;4.30;99.90;;;;;;5133687;27;20039;-81
2022/01/31 00:24:35;;;;;;;16.75;3.83;;;4.30;99.90;;;;;;5118914;27;20132;-81
2022/01/31 00:27:02;;;;;;;18.60;4.28;;;5.50;99.90;;;;;;5116024;27;20035;-80
2022/01/31 00:29:27;;;;;;;18.38;3.70;;;4.50;99.90;;;;;;5108742;27;20099;-81
2022/01/31 00:31:53;;;;;;;15.30;4.33;;;4.40;99.90;;;;;;5132806;27;20046;-80
2022/01/31 00:34:19;;;;;;;18.25;4.20;;;4.40;99.90;;;;;;5129061;27;20277;-81
2022/01/31 00:36:45;;;;;;;12.30;4.00;;;4.40;99.90;;;;;;5126308;27;20466;-81
2022/01/31 00:39:11;;;;;;;16.98;4.15;;;4.40;99.90;;;;;;5125221;27;20039;-81
2022/01/31 00:41:37;;;;;;;10.35;3.83;;;4.70;99.90;;;;;;5123907;27;20051;-81
2022/01/31 00:46:45;;;;;;;21.90;4.18;;;4.30;99.90;;;;;;5112242;27;20138;-81
2022/01/31 00:50:06;;;;;;;19.98;4.68;;;4.40;99.90;;;;;;5131794;27;20058;-80
2022/01/31 00:52:01;;;;;;;15.50;4.35;;;4.40;99.90;;;;;;5117779;27;20066;-81
2022/01/31 00:54:27;;;;;;;27.35;4.97;;;4.40;99.90;;;;;;5118200;27;20502;-81
2022/01/31 00:56:53;;;;;;;17.48;5.30;;;4.50;99.90;;;;;;5121658;27;20034;-81
2022/01/31 00:59:19;;;;;;;20.13;6.18;;;4.60;99.90;;;;;;5122585;27;20034;-81
2022/01/31 01:01:45;;;;;;;12.18;4.65;;;4.60;99.90;;;;;;5120884;27;20372;-81
2022/01/31 01:04:11;;;;;;;16.85;5.88;;;4.60;99.90;;;;;;5126379;27;20042;-80
2022/01/31 01:06:37;;;;;;;22.80;6.30;;;4.60;99.90;;;;;;5105181;27;20190;-81
2022/01/31 01:09:05;;;;;;;;;;;5.30;99.90;;;;;;5122860;27;20034;-81
2022/01/31 01:11:31;;;;;;;19.90;6.22;;;4.50;99.90;;;;;;5124074;27;19915;-81
2022/01/31 01:13:57;;;;;;;20.95;7.07;;;4.50;99.90;;;;;;5126684;27;20112;-80
2022/01/31 01:16:23;;;;;;;24.17;6.95;;;5.60;99.90;;;;;;5126132;27;20174;-80
2022/01/31 01:18:49;;;;;;;22.00;6.75;;;4.40;99.90;;;;;;5126006;27;20529;-81
2022/01/31 01:21:14;;;;;;;21.35;6.40;;;4.30;99.90;;;;;;5123069;27;20671;-80
2022/01/31 01:23:40;;;;;;;20.92;6.47;;;4.30;99.90;;;;;;5123728;27;20035;-81
2022/01/31 01:26:06;;;;;;;32.65;8.50;;;4.40;99.90;;;;;;5129943;27;20039;-80
2022/01/31 01:28:32;;;;;;;17.85;7.18;;;4.40;99.90;;;;;;5116624;27;20035;-80
2022/01/31 01:30:57;;;;;;;26.20;8.35;;;4.40;99.90;;;;;;5125444;27;20635;-79
2022/01/31 01:33:24;;;;;;;26.70;9.45;;;4.40;99.90;;;;;;5112757;27;20039;-79
2022/01/31 01:35:53;;;;;;;25.25;9.00;;;4.40;99.90;;;;;;5102955;27;20046;-79
2022/01/31 01:38:19;;;;;;;23.90;8.32;;;4.30;99.90;;;;;;5119609;27;20047;-79
2022/01/31 01:40:46;;;;;;;26.80;9.68;;;4.30;99.90;;;;;;5123086;27;20035;-79
2022/01/31 01:43:14;;;;;;;26.10;9.68;;;4.20;99.90;;;;;;5123197;27;20107;-79
2022/01/31 01:45:41;;;;;;;30.20;11.20;;;4.40;99.90;;;;;;5132499;27;20474;-80
2022/01/31 01:48:09;;;;;;;27.35;9.38;;;4.70;99.90;;;;;;5125442;27;20486;-80
2022/01/31 01:50:36;;;;;;;23.50;10.68;;;4.30;99.90;;;;;;5123245;27;20053;-80
2022/01/31 01:53:04;;;;;;;23.05;10.88;;;4.40;99.90;;;;;;5120992;27;20043;-80
2022/01/31 01:55:30;;;;;;;24.73;10.98;;;5.20;99.90;;;;;;5109424;27;20046;-80
2022/01/31 01:57:56;;;;;;;27.10;10.23;;;4.20;99.90;;;;;;5128497;27;20405;-80
2022/01/31 02:00:43;;;;;;;;;;;4.20;99.90;;;;;;5107314;27;20043;-80
2022/01/31 02:03:09;;;;;;;23.75;11.25;;;4.20;99.90;;;;;;5124083;27;19915;-81
2022/01/31 02:05:35;;;;;;;18.27;10.65;;;4.10;99.90;;;;;;5111297;27;20158;-81
2022/01/31 02:08:01;;;;;;;23.33;11.63;;;4.10;99.90;;;;;;5118304;27;20062;-81
2022/01/31 02:10:28;;;;;;;23.00;12.27;;;3.90;99.90;;;;;;5101794;27;20091;-81
2022/01/31 02:12:54;;;;;;;25.92;13.07;;;4.00;99.90;;;;;;5128662;27;20047;-81
2022/01/31 02:15:24;;;;;;;28.10;13.70;;;3.80;99.90;;;;;;5123499;27;20407;-81
2022/01/31 02:17:49;;;;;;;24.50;13.43;;;3.80;99.90;;;;;;5124966;27;20050;-81
2022/01/31 02:20:15;;;;;;;27.33;12.23;;;4.00;99.90;;;;;;5120966;27;20054;-81
2022/01/31 02:22:41;;;;;;;19.07;11.13;;;3.90;99.90;;;;;;5120776;27;20288;-81
2022/01/31 02:25:07;;;;;;;18.30;11.60;;;3.90;99.90;;;;;;5121662;27;20950;-81
2022/01/31 02:27:37;;;;;;;20.70;10.93;;;3.70;99.90;;;;;;5125851;27;20038;-80
2022/01/31 02:30:07;;;;;;;26.10;13.05;;;3.50;99.90;;;;;;5108986;27;20087;-80
2022/01/31 02:32:33;;;;;;;21.05;12.32;;;3.50;99.90;;;;;;5125849;27;20035;-81
2022/01/31 02:34:59;;;;;;;;;;;3.40;99.90;;;;;;5091693;27;20035;-81
2022/01/31 02:37:25;;;;;;;20.80;11.98;;;3.30;99.90;;;;;;5124598;27;19915;-81
2022/01/31 02:39:51;;;;;;;21.70;11.68;;;3.30;99.90;;;;;;5132233;27;20030;-81
2022/01/31 02:42:17;;;;;;;26.67;14.20;;;3.40;99.90;;;;;;5110322;27;20043;-81
2022/01/31 02:44:44;;;;;;;23.52;13.23;;;3.40;99.90;;;;;;5125776;27;21060;-81
2022/01/31 02:47:13;;;;;;;20.90;11.98;;;3.40;99.90;;;;;;5105230;27;20023;-81
2022/01/31 02:49:54;;;;;;;25.05;12.68;;;4.10;99.90;;;;;;5124069;27;20043;-81
2022/01/31 02:52:20;;;;;;;27.98;14.13;;;3.40;99.90;;;;;;5125153;27;20039;-81
2022/01/31 02:54:46;;;;;;;24.90;13.45;;;3.50;99.90;;;;;;5120343;27;20558;-80
2022/01/31 02:57:13;;;;;;;25.52;12.43;;;4.10;99.90;;;;;;5124677;27;20035;-80
2022/01/31 02:59:39;;;;;;;25.23;12.60;;;3.70;99.90;;;;;;5128090;27;20934;-80
2022/01/31 03:02:05;;;;;;;26.33;12.45;;;3.60;99.90;;;;;;5124104;27;20035;-81
2022/01/31 03:04:31;;;;;;;23.63;12.55;;;4.70;99.90;;;;;;5121491;27;20035;-80
2022/01/31 03:06:57;;;;;;;23.45;12.90;;;3.60;99.90;;;;;;5124329;27;20118;-80
2022/01/31 03:09:23;;;;;;;25.83;13.25;;;4.60;99.90;;;;;;5092809;27;20085;-80
2022/01/31 03:11:49;;;;;;;33.58;14.25;;;4.00;99.90;;;;;;5127025;27;20482;-80
2022/01/31 03:14:19;;;;;;;28.08;14.07;;;4.70;99.90;;;;;;5131750;27;20049;-80
2022/01/31 03:16:48;;;;;;;24.30;11.88;;;3.70;99.90;;;;;;5127120;27;20117;-80
2022/01/31 03:19:16;;;;;;;25.73;11.23;;;3.70;99.90;;;;;;5114356;27;20087;-80
2022/01/31 03:21:42;;;;;;;19.25;8.38;;;3.80;99.90;;;;;;5127425;27;20487;-80
2022/01/31 03:24:09;;;;;;;19.05;9.13;;;4.00;99.90;;;;;;5120418;27;20038;-81
2022/01/31 03:26:36;;;;;;;17.55;9.57;;;4.10;99.90;;;;;;5117434;27;20039;-80
2022/01/31 03:29:01;;;;;;;;;;;4.20;99.90;;;;;;5125904;27;20505;-80
2022/01/31 03:31:27;;;;;;;15.13;7.57;;;4.30;99.90;;;;;;5127241;27;19998;-80
2022/01/31 03:33:54;;;;;;;15.77;8.32;;;4.30;99.90;;;;;;5128077;27;20043;-81
2022/01/31 03:36:20;;;;;;;18.00;9.05;;;4.30;99.90;;;;;;5100700;27;20039;-81
2022/01/31 03:38:47;;;;;;;20.83;8.68;;;4.30;99.90;;;;;;5125198;27;20076;-81
2022/01/31 03:41:16;;;;;;;19.45;7.90;;;4.40;99.90;;;;;;5124906;27;20057;-81
2022/01/31 03:43:42;;;;;;;20.95;7.45;;;4.30;99.90;;;;;;5122464;27;20156;-81
2022/01/31 03:46:08;;;;;;;14.10;5.60;;;4.40;99.90;;;;;;5127966;27;20038;-81
2022/01/31 03:48:34;;;;;;;19.15;4.93;;;4.50;99.90;;;;;;5124810;27;20130;-81
2022/01/31 03:51:02;;;;;;;21.70;4.80;;;4.70;99.90;;;;;;5110244;27;20043;-81
2022/01/31 03:53:28;;;;;;;29.10;5.50;;;4.70;99.90;;;;;;5107549;27;20444;-81
2022/01/31 03:55:54;;;;;;;27.00;4.80;;;4.80;99.90;;;;;;5130910;27;20088;-81
2022/01/31 03:58:20;;;;;;;22.42;4.78;;;4.90;99.90;;;;;;5127079;27;20047;-81
2022/01/31 04:00:47;;;;;;;22.08;4.50;;;5.10;99.90;;;;;;5124169;27;20039;-81
2022/01/31 04:03:13;;;;;;;18.33;3.85;;;5.10;99.90;;;;;;5110522;27;20114;-81
2022/01/31 04:05:38;;;;;;;25.52;4.45;;;5.10;99.90;;;;;;5124858;27;20271;-81
2022/01/31 04:08:06;;;;;;;23.08;3.35;;;5.20;99.90;;;;;;5105136;27;20038;-81
2022/01/31 04:10:32;;;;;;;19.45;3.47;;;5.20;99.90;;;;;;5123925;27;20047;-81
2022/01/31 04:12:58;;;;;;;13.82;3.50;;;5.20;99.90;;;;;;5124527;27;20031;-80
2022/01/31 04:15:24;;;;;;;19.15;3.55;;;5.20;99.90;;;;;;5114003;27;20084;-80
2022/01/31 04:17:49;;;;;;;14.23;2.73;;;5.20;99.90;;;;;;5124848;27;20072;-81
2022/01/31 04:20:16;;;;;;;15.10;3.03;;;5.10;99.90;;;;;;5124742;27;20292;-81
2022/01/31 04:22:50;;;;;;;19.52;3.20;;;5.10;99.90;;;;;;5122049;27;20043;-81
2022/01/31 04:25:29;;;;;;;18.65;3.05;;;5.40;99.90;;;;;;5123782;27;20433;-81
2022/01/31 04:28:04;;;;;;;13.45;2.42;;;5.90;99.90;;;;;;5128918;27;20034;-80
2022/01/31 04:30:32;;;;;;;11.90;1.50;;;5.20;99.90;;;;;;5122199;27;20053;-80
2022/01/31 04:32:57;;;;;;;10.02;1.85;;;5.80;99.90;;;;;;5128117;27;20534;-81
2022/01/31 04:35:23;;;;;;;9.57;1.92;;;5.10;99.90;;;;;;5121261;27;20035;-81
2022/01/31 04:37:50;;;;;;;14.90;2.05;;;5.10;99.90;;;;;;5131077;27;20046;-81
2022/01/31 04:40:16;;;;;;;12.52;2.25;;;5.00;99.90;;;;;;5126204;27;20109;-81
2022/01/31 04:42:43;;;;;;;16.60;2.47;;;5.10;99.90;;;;;;5130379;27;20110;-81
2022/01/31 04:45:10;;;;;;;14.45;3.33;;;5.00;99.90;;;;;;5121151;27;20281;-81
2022/01/31 04:47:36;;;;;;;18.02;2.17;;;5.00;99.90;;;;;;5113600;27;20075;-81
2022/01/31 04:50:03;;;;;;;20.35;3.00;;;4.90;99.90;;;;;;5120322;27;20811;-81
2022/01/31 04:52:29;;;;;;;14.70;2.30;;;5.00;99.90;;;;;;5122909;27;20047;-81
2022/01/31 04:54:55;;;;;;;18.05;3.17;;;4.90;99.90;;;;;;5128216;27;20046;-81
2022/01/31 04:57:21;;;;;;;18.52;2.70;;;5.50;99.90;;;;;;5125303;27;20529;-81
2022/01/31 04:59:48;;;;;;;31.63;3.03;;;5.60;99.90;;;;;;5130001;27;20043;-81
2022/01/31 05:02:14;;;;;;;17.67;2.25;;;4.90;99.90;;;;;;5128673;27;20043;-81
2022/01/31 05:04:40;;;;;;;19.58;3.30;;;4.90;99.90;;;;;;5127550;27;20058;-81
2022/01/31 05:07:05;;;;;;;17.85;3.13;;;4.90;99.90;;;;;;5105944;27;20467;-81
2022/01/31 05:09:31;;;;;;;21.92;3.72;;;4.90;99.90;;;;;;5132551;27;20431;-81
2022/01/31 05:11:57;;;;;;;16.60;2.63;;;5.10;99.90;;;;;;5113263;27;20473;-81
2022/01/31 05:14:25;;;;;;;13.15;2.53;;;5.00;99.90;;;;;;5128554;27;20031;-81
2022/01/31 05:16:51;;;;;;;9.27;1.52;;;5.10;99.90;;;;;;5122217;27;20043;-80
2022/01/31 05:19:17;;;;;;;9.52;1.70;;;5.10;99.90;;;;;;5132884;27;20098;-80
2022/01/31 05:21:42;;;;;;;11.83;1.53;;;5.00;99.90;;;;;;5132959;27;20486;-80
2022/01/31 05:24:10;;;;;;;10.15;1.25;;;4.90;99.90;;;;;;5127830;27;20027;-81
2022/01/31 05:26:36;;;;;;;6.25;1.20;;;4.80;99.90;;;;;;5128430;27;20435;-80
2022/01/31 05:29:02;;;;;;;10.48;1.40;;;4.80;99.90;;;;;;5126221;27;20026;-84
2022/01/31 05:31:27;;;;;;;8.77;1.40;;;5.50;99.90;;;;;;5128316;27;20084;-85
2022/01/31 05:33:53;;;;;;;10.07;1.42;;;5.80;99.90;;;;;;5110930;27;20043;-85
2022/01/31 05:36:20;;;;;;;8.40;1.40;;;4.60;99.90;;;;;;5124237;27;20050;-86
2022/01/31 05:38:46;;;;;;;6.05;1.48;;;4.60;99.90;;;;;;5133620;27;20293;-84
2022/01/31 05:41:18;;;;;;;9.73;1.40;;;4.60;99.90;;;;;;5107602;27;20038;-85
2022/01/31 05:43:45;;;;;;;6.40;1.25;;;4.60;99.90;;;;;;5128415;27;20066;-86
2022/01/31 05:46:10;;;;;;;6.57;1.20;;;5.30;99.90;;;;;;5101300;27;20507;-84
2022/01/31 05:48:36;;;;;;;9.67;1.50;;;4.50;99.90;;;;;;5130654;27;20066;-84
2022/01/31 05:51:03;;;;;;;9.73;1.43;;;4.60;99.90;;;;;;5127562;27;20284;-85
2022/01/31 05:53:30;;;;;;;7.20;1.60;;;4.70;99.90;;;;;;5127315;27;20043;-85
2022/01/31 05:55:57;;;;;;;6.10;1.20;;;4.70;99.90;;;;;;5107193;27;20039;-79
2022/01/31 05:58:24;;;;;;;10.85;1.40;;;5.30;99.90;;;;;;5120768;27;20050;-78
2022/01/31 06:00:50;;;;;;;6.53;1.38;;;4.60;99.90;;;;;;5108870;27;20067;-78
2022/01/31 06:03:15;;;;;;;10.95;1.95;;;4.60;99.90;;;;;;5126485;27;20035;-78
2022/01/31 06:05:41;;;;;;;11.32;1.48;;;4.70;99.90;;;;;;5123445;27;20039;-78
2022/01/31 06:08:07;;;;;;;10.27;1.48;;;4.70;99.90;;;;;;5108947;27;20030;-79
2022/01/31 06:10:35;;;;;;;8.90;1.47;;;4.60;99.90;;;;;;5106375;27;20051;-77
2022/01/31 06:13:00;;;;;;;6.85;1.50;;;3.80;99.90;;;;;;5126221;27;20664;-78
2022/01/31 06:15:26;;;;;;;11.25;1.65;;;4.70;99.90;;;;;;5125319;27;20126;-79
2022/01/31 06:17:52;;;;;;;10.68;1.80;;;4.70;99.90;;;;;;5109977;27;20485;-79
2022/01/31 06:20:18;;;;;;;15.03;1.67;;;4.70;99.90;;;;;;5127752;27;20038;-79
2022/01/31 06:22:50;;;;;;;14.02;1.80;;;4.70;99.90;;;;;;5109619;27;20370;-79
2022/01/31 06:25:17;;;;;;;11.93;1.50;;;4.70;99.90;;;;;;5125405;27;20056;-78
2022/01/31 06:27:43;;;;;;;11.30;1.90;;;5.10;99.90;;;;;;5123117;27;20169;-78
2022/01/31 06:30:09;;;;;;;9.70;1.60;;;5.00;99.90;;;;;;5125470;27;20093;-79
2022/01/31 06:32:35;;;;;;;12.15;1.77;;;4.80;99.90;;;;;;5128173;27;20031;-79
2022/01/31 06:35:00;;;;;;;11.70;1.77;;;4.80;99.90;;;;;;5125625;27;20039;-78
2022/01/31 06:37:26;;;;;;;12.57;1.60;;;4.80;99.90;;;;;;5125770;27;20516;-79
2022/01/31 06:39:52;;;;;;;11.37;1.83;;;4.80;99.90;;;;;;5110226;27;20038;-79
2022/01/31 06:42:17;;;;;;;11.25;1.67;;;5.10;99.90;;;;;;5103909;27;20288;-79
2022/01/31 06:44:43;;;;;;;12.27;1.50;;;4.90;99.90;;;;;;5110151;27;20035;-79
2022/01/31 06:47:09;;;;;;;10.48;1.42;;;4.90;99.90;;;;;;5125559;27;20344;-79
2022/01/31 06:49:34;;;;;;;8.90;1.35;;;4.90;99.90;;;;;;5104088;27;20560;-79
2022/01/31 06:52:00;;;;;;;10.20;1.30;;;4.90;99.90;;;;;;5126610;27;20080;-79
2022/01/31 06:54:26;;;;;;;7.63;1.52;;;4.90;99.90;;;;;;5126253;27;20054;-79
2022/01/31 06:56:52;;;;;;;11.07;1.45;;;5.60;99.90;;;;;;5110489;27;20115;-79
2022/01/31 06:59:18;;;;;;;8.60;1.50;;;4.90;99.90;;;;;;5127792;27;20042;-79
2022/01/31 07:01:44;;;;;;;4.32;1.17;;;5.00;99.90;;;;;;5123146;27;20510;-79
2022/01/31 07:04:11;;;;;;;12.27;1.88;;;5.00;99.90;;;;;;5124925;27;20389;-79
2022/01/31 07:06:36;;;;;;;14.52;1.60;;;4.90;99.90;;;;;;5108567;27;20031;-79
2022/01/31 07:09:02;;;;;;;10.25;0.90;;;4.90;99.90;;;;;;5107877;27;20079;-78
2022/01/31 07:11:32;;;;;;;9.02;1.77;;;4.90;99.90;;;;;;5124769;27;20113;-78
2022/01/31 07:14:04;;;;;;;14.15;1.60;;;4.90;99.90;;;;;;5125069;27;20039;-79
2022/01/31 07:16:30;;;;;;;13.32;1.70;;;4.80;99.90;;;;;;5106257;27;20038;-78
2022/01/31 07:19:06;;;;;;;11.73;1.58;;;4.80;99.90;;;;;;5121917;27;20418;-78
2022/01/31 07:21:48;;;;;;;7.93;1.60;;;4.80;99.90;;;;;;5124173;27;20035;-78
2022/01/31 07:24:25;;;;;;;12.23;1.88;;;4.80;99.90;;;;;;5123453;27;20064;-78
2022/01/31 07:26:51;;;;;;;12.68;1.48;;;4.80;99.90;;;;;;5127146;27;20484;-78
2022/01/31 07:29:21;;;;;;;8.68;1.80;;;4.80;99.90;;;;;;5117054;27;20570;-78
2022/01/31 07:31:47;;;;;;;12.00;1.58;;;5.20;99.90;;;;;;5124241;27;20034;-78
2022/01/31 07:34:15;;;;;;;8.38;1.50;;;4.80;99.90;;;;;;5102377;27;20049;-78
2022/01/31 07:36:42;;;;;;;10.88;2.00;;;4.80;99.90;;;;;;5123467;27;20047;-78
2022/01/31 07:39:08;;;;;;;8.80;1.40;;;4.90;99.90;;;;;;5126664;27;20034;-78
2022/01/31 07:41:33;;;;;;;8.20;1.48;;;4.90;99.90;;;;;;5107965;27;20051;-78
2022/01/31 07:44:00;;;;;;;8.25;1.30;;;4.90;99.90;;;;;;5120594;27;20053;-78
2022/01/31 07:46:26;;;;;;;7.03;1.48;;;5.10;99.90;;;;;;5120311;28;20039;-78
2022/01/31 07:48:53;;;;;;;11.75;1.33;;;4.90;99.90;;;;;;5120176;27;20494;-78
2022/01/31 07:51:20;;;;;;;8.90;1.40;;;4.90;99.90;;;;;;5126049;27;20047;-79
2022/01/31 07:53:46;;;;;;;7.75;1.30;;;4.90;99.90;;;;;;5123660;27;20045;-78
2022/01/31 07:56:14;;;;;;;10.60;1.25;;;5.00;99.90;;;;;;5125645;27;20038;-78
2022/01/31 07:58:40;;;;;;;11.85;1.20;;;5.80;99.90;;;;;;5104115;27;20487;-78
2022/01/31 08:01:07;;;;;;;8.07;1.33;;;5.40;99.90;;;;;;5121528;27;20031;-78
2022/01/31 08:03:34;;;;;;;11.90;1.73;;;5.30;99.90;;;;;;5123680;27;20043;-78
2022/01/31 08:06:00;;;;;;;9.43;1.50;;;4.90;99.90;;;;;;5125589;27;20042;-78
2022/01/31 08:08:30;;;;;;;13.73;1.45;;;4.90;99.90;;;;;;5125278;27;20035;-78
2022/01/31 08:10:57;;;;;;;12.40;1.33;;;5.20;99.90;;;;;;5125674;27;20147;-78
2022/01/31 08:13:26;;;;;;;8.52;1.20;;;4.80;99.90;;;;;;5096125;27;20034;-79
2022/01/31 08:16:09;;;;;;;7.60;1.33;;;4.80;99.90;;;;;;5108781;27;20502;-79
2022/01/31 08:18:45;;;;;;;11.25;2.00;;;4.90;99.90;;;;;;5126950;27;20041;-78
2022/01/31 08:21:13;;;;;;;9.10;1.30;;;5.00;99.90;;;;;;5091776;27;20602;-78
2022/01/31 08:23:38;;;;;;;9.98;1.55;;;5.10;99.90;;;;;;5129059;27;20084;-78
2022/01/31 08:26:08;;;;;;;8.75;1.27;;;5.50;99.90;;;;;;5109187;27;20485;-78
2022/01/31 08:28:40;;;;;;;11.90;1.70;;;5.40;99.90;;;;;;5125688;27;20064;-78
2022/01/31 08:31:29;;;;;;;12.70;1.45;;;5.50;99.90;;;;;;5125536;27;20042;-78
2022/01/31 08:36:34;;;;;;;7.13;1.20;;;5.90;99.90;;;;;;5127413;27;20039;-78
2022/01/31 08:39:08;;;;;;;9.88;1.10;;;5.90;99.90;;;;;;5125891;27;20509;-78
2022/01/31 08:41:36;;;;;;;9.02;1.30;;;5.80;99.90;;;;;;5126511;27;20046;-78
2022/01/31 08:44:04;;;;;;;7.35;0.90;;;5.80;99.90;;;;;;5124998;27;20676;-78
2022/01/31 08:46:30;;;;;;;6.05;1.02;;;5.80;99.90;;;;;;5113167;27;20043;-78
2022/01/31 08:48:58;;;;;;;;;;;5.80;99.90;;;;;;5130438;27;20071;-78
2022/01/31 08:51:23;;;;;;;;;;;5.90;99.90;;;;;;5108692;27;20362;-78
2022/01/31 08:53:49;;;;;;;13.57;1.60;;;5.90;99.90;;;;;;5126156;27;19925;-79
2022/01/31 08:56:15;;;;;;;9.38;1.45;;;5.90;99.90;;;;;;5094430;27;20042;-79
2022/01/31 08:58:46;;;;;;;11.73;1.70;;;6.20;99.90;;;;;;5112762;27;20043;-78
2022/01/31 09:01:17;;;;;;;10.63;1.40;;;6.10;99.90;;;;;;5127383;27;20041;-78
2022/01/31 09:06:19;;;;;;;12.10;1.33;;;6.00;99.90;;;;;;5126619;27;20043;-79
2022/01/31 09:08:45;;;;;;;10.68;1.50;;;6.10;99.90;;;;;;5126727;27;20042;-79
2022/01/31 09:11:11;;;;;;;11.73;1.67;;;6.60;99.90;;;;;;5126703;27;20398;-79
2022/01/31 09:13:38;;;;;;;14.63;1.65;;;7.30;99.90;;;;;;5122224;27;20039;-79
2022/01/31 09:16:05;;;;;;;8.25;1.30;;;8.00;99.90;;;;;;5125290;27;20135;-79
2022/01/31 09:18:31;;;;;;;8.05;1.40;;;8.20;99.90;;;;;;5124754;27;20435;-79
2022/01/31 09:20:58;;;;;;;10.80;1.48;;;8.50;99.90;;;;;;5126741;27;20092;-79
2022/01/31 09:23:24;;;;;;;9.98;1.48;;;8.60;99.90;;;;;;5129606;27;20459;-79
2022/01/31 09:25:50;;;;;;;7.20;1.30;;;8.30;99.90;;;;;;5125400;27;20041;-79
2022/01/31 09:28:16;;;;;;;9.35;1.48;;;7.90;99.90;;;;;;5127824;27;20460;-78
2022/01/31 09:30:44;;;;;;;8.40;1.42;;;7.70;99.90;;;;;;5126670;27;20042;-78
2022/01/31 09:33:11;;;;;;;11.25;1.90;;;7.40;99.90;;;;;;5125657;27;20047;-79
2022/01/31 09:35:36;;;;;;;7.10;1.15;;;7.30;99.90;;;;;;5109410;27;20043;-78
2022/01/31 09:38:04;;;;;;;11.20;1.08;;;7.10;99.90;;;;;;5126153;27;20352;-77
2022/01/31 09:40:31;;;;;;;10.55;1.05;;;7.00;99.90;;;;;;5124353;27;20471;-78
2022/01/31 09:43:22;;;;;;;8.55;1.00;;;6.90;99.90;;;;;;5128859;27;20045;-79
2022/01/31 09:51:02;;;;;;;10.85;1.52;;;8.80;99.90;;;;;;5109086;27;20050;-79
2022/01/31 09:53:31;;;;;;;6.65;1.40;;;9.70;99.90;;;;;;5118611;27;20062;-78
2022/01/31 09:55:56;;;;;;;9.02;1.55;;;10.10;99.90;;;;;;5124380;27;20106;-79
2022/01/31 09:58:29;;;;;;;10.40;1.58;;;10.70;99.90;;;;;;5116242;27;20070;-75
2022/01/31 10:01:12;;;;;;;10.52;1.40;;;10.90;99.90;;;;;;5102072;27;20043;-75
2022/01/31 10:03:49;;;;;;;6.95;1.35;;;11.30;99.90;;;;;;5124047;27;20034;-75
2022/01/31 10:06:26;;;;;;;8.10;1.42;;;11.40;99.90;;;;;;5117864;27;20070;-75
2022/01/31 10:09:06;;;;;;;7.63;1.30;;;11.90;99.90;;;;;;5114259;27;20050;-75
2022/01/31 10:11:48;;;;;;;6.75;1.23;;;12.10;99.90;;;;;;5119475;27;21674;-75
2022/01/31 10:17:14;;;;;;;7.25;1.58;;;12.30;99.90;;;;;;5129813;27;20047;-74
2022/01/31 10:19:43;;;;;;;8.13;1.45;;;11.80;99.90;;;;;;5116369;27;20051;-75
2022/01/31 10:22:12;;;;;;;8.93;1.25;;;10.90;99.90;;;;;;5121482;27;20042;-74
2022/01/31 10:24:40;;;;;;;8.68;1.30;;;10.60;99.90;;;;;;5130521;27;20097;-74
2022/01/31 10:27:12;;;;;;;10.70;1.92;;;9.90;99.90;;;;;;5128138;27;20175;-75
2022/01/31 10:29:38;;;;;;;11.50;1.50;;;9.90;99.90;;;;;;5117378;27;20087;-75
2022/01/31 10:32:31;;;;;;;8.07;1.50;;;9.80;99.90;;;;;;5117948;27;20043;-74
2022/01/31 10:35:01;;;;;;;9.38;1.70;;;9.50;99.90;;;;;;5103344;27;20027;-75
2022/01/31 10:37:29;;;;;;;15.52;2.22;;;9.30;99.90;;;;;;5123619;27;20034;-75
2022/01/31 10:54:26;;;;;;;12.98;1.42;;;9.60;99.90;;;;;;5129546;27;20050;-76
2022/01/31 10:57:04;;;;;;;6.07;1.27;;;9.60;99.90;;;;;;5121906;27;20058;-75
2022/01/31 10:59:36;;;;;;;8.57;1.63;;;10.10;99.90;;;;;;5098927;27;20035;-75
2022/01/31 11:02:05;;;;;;;9.05;1.73;;;10.70;99.90;;;;;;5112714;27;20081;-73
2022/01/31 11:04:33;;;;;;;9.85;2.10;;;11.30;99.90;;;;;;5108010;27;20041;-74
2022/01/31 11:07:06;;;;;;;7.75;1.77;;;12.00;99.90;;;;;;5103570;27;20373;-74
2022/01/31 11:09:32;;;;;;;11.18;1.50;;;12.40;99.90;;;;;;5130956;27;20039;-74
2022/01/31 11:11:58;;;;;;;7.28;1.40;;;12.30;99.90;;;;;;5116147;27;20029;-73
2022/01/31 11:14:26;;;;;;;;;;;12.60;99.90;;;;;;5121209;27;20031;-74
2022/01/31 11:16:54;;;;;;;13.25;1.92;;;12.70;99.90;;;;;;5133786;27;19999;-74
2022/01/31 11:19:30;;;;;;;11.40;2.33;;;12.80;99.90;;;;;;5123013;27;20035;-74
2022/01/31 11:22:04;;;;;;;10.02;2.22;;;12.70;99.90;;;;;;5109339;27;20062;-75
2022/01/31 11:24:35;;;;;;;12.35;2.00;;;12.80;99.90;;;;;;5139065;27;20109;-75
2022/01/31 11:27:16;;;;;;;14.32;1.98;;;13.00;99.90;;;;;;5116734;27;20046;-74
2022/01/31 11:29:53;;;;;;;9.07;2.05;;;13.00;99.90;;;;;;5118436;27;20054;-74
2022/01/31 11:32:19;;;;;;;;;;;12.70;99.90;;;;;;5118456;27;20794;-75
2022/01/31 11:34:45;;;;;;;14.00;2.28;;;12.70;99.90;;;;;;5120505;27;19915;-74
2022/01/31 11:37:14;;;;;;;12.85;1.88;;;12.90;99.90;;;;;;5129821;27;20042;-74
2022/01/31 11:39:43;;;;;;;11.07;2.22;;;13.00;99.90;;;;;;5114386;28;20096;-74
2022/01/31 11:42:09;;;;;;;11.57;1.83;;;13.20;99.90;;;;;;5091307;28;20052;-74
2022/01/31 11:44:44;;;;;;;17.02;2.30;;;13.60;99.90;;;;;;5114349;28;20119;-74
2022/01/31 11:47:10;;;;;;;14.48;2.42;;;13.50;99.90;;;;;;5106291;28;20070;-74
2022/01/31 11:49:50;;;;;;;16.00;2.33;;;13.10;99.90;;;;;;5121758;28;20038;-74
2022/01/31 11:52:17;;;;;;;9.15;2.38;;;12.70;99.90;;;;;;5123949;28;20071;-74
2022/01/31 11:54:56;;;;;;;13.52;2.30;;;12.40;99.90;;;;;;5106527;28;20043;-74
2022/01/31 11:57:34;;;;;;;12.73;2.53;;;12.20;99.90;;;;;;5116228;28;20102;-74
2022/01/31 12:00:10;;;;;;;13.73;2.28;;;11.50;99.90;;;;;;5127346;28;20049;-74
2022/01/31 12:02:44;;;;;;;16.35;2.22;;;11.10;99.90;;;;;;5107334;28;20563;-74
2022/01/31 12:05:15;;;;;;;14.95;2.55;;;11.00;99.90;;;;;;5101714;28;20487;-74
2022/01/31 12:07:44;;;;;;;18.27;2.78;;;10.70;99.90;;;;;;5122241;28;20074;-74
2022/01/31 12:10:23;;;;;;;16.52;2.55;;;10.50;99.90;;;;;;5116226;28;20047;-74
2022/01/31 12:13:16;;;;;;;15.02;2.25;;;10.50;99.90;;;;;;5108612;28;20074;-74
2022/01/31 12:23:41;;;;;;;17.17;2.70;;;10.40;99.90;;;;;;5107166;28;20459;-74
2022/01/31 12:26:28;;;;;;;14.10;2.83;;;10.30;99.90;;;;;;5123699;28;20456;-75
2022/01/31 12:29:15;;;;;;;14.60;2.17;;;10.10;99.90;;;;;;5114836;28;20036;-74
2022/01/31 12:31:49;;;;;;;14.10;2.58;;;10.10;99.90;;;;;;5120508;28;20065;-74
2022/01/31 12:34:17;;;;;;;17.05;2.33;;;10.60;99.90;;;;;;5124852;28;20035;-74
2022/01/31 12:36:43;;;;;;;14.80;2.08;;;10.70;99.90;;;;;;5113594;28;20043;-74
2022/01/31 12:39:40;;;;;;;11.70;1.93;;;10.50;99.90;;;;;;5115965;28;20391;-75
2022/01/31 12:42:45;;;;;;;15.88;1.90;;;10.40;99.90;;;;;;5094051;28;20055;-74
2022/01/31 12:45:32;;;;;;;12.90;1.80;;;10.10;99.90;;;;;;5118801;28;20066;-74
2022/01/31 12:48:14;;;;;;;14.73;2.05;;;10.00;99.90;;;;;;5116723;28;20051;-74
2022/01/31 12:50:41;;;;;;;13.48;2.08;;;10.00;99.90;;;;;;5112209;28;20057;-74
2022/01/31 12:53:23;;;;;;;17.48;2.42;;;9.90;99.90;;;;;;5121597;27;20501;-74
2022/01/31 12:56:11;;;;;;;19.30;3.03;;;9.80;99.90;;;;;;5117971;27;20044;-74
2022/01/31 12:58:36;;;;;;;14.55;2.58;;;9.70;99.90;;;;;;5125132;27;20035;-74
2022/01/31 13:01:15;;;;;;;15.37;2.30;;;9.80;99.90;;;;;;5129434;27;20044;-74
2022/01/31 13:03:44;;;;;;;17.63;2.20;;;9.60;99.90;;;;;;5124537;27;20054;-74
2022/01/31 13:06:33;;;;;;;15.10;2.13;;;9.70;99.90;;;;;;5129048;27;20050;-74
2022/01/31 13:09:06;;;;;;;14.35;2.00;;;9.50;99.90;;;;;;5129800;27;20184;-74
2022/01/31 13:11:32;;;;;;;17.38;3.03;;;9.50;99.90;;;;;;5121908;27;20111;-74
2022/01/31 13:14:08;;;;;;;15.43;2.60;;;9.30;99.90;;;;;;5120005;27;20055;-74
2022/01/31 13:17:06;;;;;;;16.37;2.30;;;9.20;99.90;;;;;;5111541;28;20111;-74
2022/01/31 13:19:35;;;;;;;17.35;2.15;;;9.00;99.90;;;;;;5120063;27;20092;-74
2022/01/31 13:22:06;;;;;;;18.67;2.45;;;9.00;99.90;;;;;;5127045;27;20073;-74
2022/01/31 13:24:38;;;;;;;26.55;2.70;;;8.90;99.90;;;;;;5114397;27;20504;-74
2022/01/31 13:27:06;;;;;;;16.98;2.35;;;8.90;99.90;;;;;;5111887;27;20109;-74
2022/01/31 13:29:40;;;;;;;17.00;2.58;;;9.00;99.90;;;;;;5128315;27;20497;-74
2022/01/31 13:32:19;;;;;;;19.45;2.97;;;9.10;99.90;;;;;;5113533;27;20063;-74
2022/01/31 13:34:50;;;;;;;16.95;3.13;;;9.00;99.90;;;;;;5111111;28;20038;-74
2022/01/31 13:37:42;;;;;;;19.73;3.53;;;8.90;99.90;;;;;;5123521;27;20066;-74
2022/01/31 13:40:10;;;;;;;16.80;2.72;;;8.90;99.90;;;;;;5125543;27;20057;-74